createdAt,value
2023-05-11T00:00:00.750Z,14.06
2023-05-11T00:01:00.745Z,14.08
2023-05-11T00:02:00.769Z,14.06
2023-05-11T00:03:00.861Z,14.02
2023-05-11T00:04:00.937Z,14.01
2023-05-11T00:05:00.764Z,13.98
2023-05-11T00:06:00.701Z,13.96
2023-05-11T00:07:00.698Z,13.91
2023-05-11T00:08:00.694Z,13.88
2023-05-11T00:09:00.684Z,13.88
2023-05-11T00:10:00.649Z,13.87
2023-05-11T00:11:00.721Z,13.86
2023-05-11T00:12:00.625Z,13.87
2023-05-11T00:13:00.631Z,13.87
2023-05-11T00:14:00.583Z,13.83
2023-05-11T00:15:00.618Z,13.80
2023-05-11T00:16:00.676Z,13.80
2023-05-11T00:17:00.584Z,13.76
2023-05-11T00:18:00.572Z,13.69
2023-05-11T00:19:00.746Z,13.62
2023-05-11T00:20:00.563Z,13.61
2023-05-11T00:21:00.518Z,13.59
2023-05-11T00:22:00.474Z,13.62
2023-05-11T00:23:00.492Z,13.59
2023-05-11T00:24:08.441Z,13.55
2023-05-11T00:25:00.519Z,13.59
2023-05-11T00:26:00.440Z,13.55
2023-05-11T00:27:00.421Z,13.53
2023-05-11T00:28:00.411Z,13.53
2023-05-11T00:29:00.425Z,13.51
2023-05-11T00:30:00.455Z,13.53
2023-05-11T00:31:00.446Z,13.53
2023-05-11T00:32:00.356Z,13.53
2023-05-11T00:33:00.443Z,13.50
2023-05-11T00:34:00.336Z,13.47
2023-05-11T00:35:00.343Z,13.46
2023-05-11T00:36:00.340Z,13.44
2023-05-11T00:37:00.345Z,13.41
2023-05-11T00:38:00.246Z,13.29
2023-05-11T00:39:00.284Z,13.29
2023-05-11T00:40:00.222Z,13.19
2023-05-11T00:41:00.219Z,13.12
2023-05-11T00:42:00.203Z,13.04
2023-05-11T00:43:00.211Z,13.01
2023-05-11T00:44:00.194Z,13.03
2023-05-11T00:45:00.241Z,12.96
2023-05-11T00:46:00.191Z,12.91
2023-05-11T00:47:00.245Z,12.87
2023-05-11T00:48:00.269Z,12.81
2023-05-11T00:49:00.142Z,12.79
2023-05-11T00:50:00.128Z,12.84
2023-05-11T00:51:00.105Z,12.84
2023-05-11T00:52:00.126Z,12.84
2023-05-11T00:53:00.132Z,12.81
2023-05-11T00:54:00.054Z,12.77
2023-05-11T00:55:00.066Z,12.73
2023-05-11T00:56:00.015Z,12.69
2023-05-11T00:57:00.015Z,12.63
2023-05-11T00:58:00.048Z,12.66
2023-05-11T00:59:00.024Z,12.66
2023-05-11T00:59:59.986Z,12.67
2023-05-11T01:01:00.108Z,12.70
2023-05-11T01:01:59.993Z,12.76
2023-05-11T01:02:59.999Z,12.80
2023-05-11T01:03:59.944Z,12.80
2023-05-11T01:04:59.939Z,12.80
2023-05-11T01:05:59.916Z,12.84
2023-05-11T01:06:59.885Z,12.85
2023-05-11T01:07:59.866Z,12.88
2023-05-11T01:08:59.901Z,12.89
2023-05-11T01:09:59.871Z,12.89
2023-05-11T01:10:59.901Z,12.88
2023-05-11T01:11:59.837Z,12.88
2023-05-11T01:12:59.832Z,12.89
2023-05-11T01:13:59.820Z,12.91
2023-05-11T01:14:59.847Z,12.94
2023-05-11T01:15:59.759Z,12.94
2023-05-11T01:16:59.825Z,12.95
2023-05-11T01:17:59.804Z,12.94
2023-05-11T01:18:59.831Z,12.96
2023-05-11T01:19:59.714Z,12.98
2023-05-11T01:20:59.743Z,12.99
2023-05-11T01:21:59.711Z,12.99
2023-05-11T01:22:59.686Z,13.01
2023-05-11T01:23:59.697Z,13.03
2023-05-11T01:24:59.686Z,13.06
2023-05-11T01:25:59.637Z,13.06
2023-05-11T01:26:59.684Z,13.06
2023-05-11T01:27:59.601Z,13.06
2023-05-11T01:28:59.654Z,13.06
2023-05-11T01:29:59.614Z,13.06
2023-05-11T01:30:59.575Z,13.04
2023-05-11T01:31:59.591Z,13.03
2023-05-11T01:32:59.621Z,13.03
2023-05-11T01:33:59.594Z,12.99
2023-05-11T01:34:59.560Z,13.01
2023-05-11T01:35:59.489Z,13.01
2023-05-11T01:36:59.556Z,13.01
2023-05-11T01:37:59.511Z,12.99
2023-05-11T01:38:59.474Z,12.98
2023-05-11T01:39:59.492Z,13.01
2023-05-11T01:40:59.473Z,12.99
2023-05-11T01:41:59.442Z,13.01
2023-05-11T01:42:59.450Z,12.99
2023-05-11T01:43:59.447Z,12.98
2023-05-11T01:44:59.385Z,12.98
2023-05-11T01:45:59.371Z,12.96
2023-05-11T01:46:59.395Z,12.96
2023-05-11T01:47:59.387Z,12.95
2023-05-11T01:48:59.355Z,12.94
2023-05-11T01:49:59.332Z,12.92
2023-05-11T01:50:59.340Z,12.94
2023-05-11T01:51:59.302Z,12.94
2023-05-11T01:52:59.284Z,12.95
2023-05-11T01:53:59.334Z,12.95
2023-05-11T01:54:59.252Z,12.94
2023-05-11T01:55:59.280Z,12.95
2023-05-11T01:56:59.240Z,12.95
2023-05-11T01:57:59.213Z,12.96
2023-05-11T01:58:59.265Z,12.95
2023-05-11T01:59:59.202Z,12.94
2023-05-11T02:00:59.201Z,12.91
2023-05-11T02:01:59.195Z,12.87
2023-05-11T02:02:59.237Z,12.85
2023-05-11T02:03:59.122Z,12.84
2023-05-11T02:04:59.218Z,12.84
2023-05-11T02:05:59.114Z,12.80
2023-05-11T02:06:59.127Z,12.79
2023-05-11T02:07:59.077Z,12.77
2023-05-11T02:08:59.073Z,12.77
2023-05-11T02:09:59.074Z,12.74
2023-05-11T02:10:59.071Z,12.76
2023-05-11T02:11:59.027Z,12.76
2023-05-11T02:12:59.060Z,12.74
2023-05-11T02:13:59.034Z,12.74
2023-05-11T02:14:59.031Z,12.74
2023-05-11T02:15:59.035Z,12.73
2023-05-11T02:16:59.001Z,12.74
2023-05-11T02:17:59.038Z,12.74
2023-05-11T02:18:59.010Z,12.74
2023-05-11T02:19:58.925Z,12.73
2023-05-11T02:20:58.931Z,12.71
2023-05-11T02:21:58.916Z,12.71
2023-05-11T02:22:58.918Z,12.70
2023-05-11T02:23:58.907Z,12.70
2023-05-11T02:24:58.944Z,12.73
2023-05-11T02:25:58.849Z,12.73
2023-05-11T02:26:58.905Z,12.76
2023-05-11T02:27:58.825Z,12.76
2023-05-11T02:28:58.803Z,12.77
2023-05-11T02:29:58.811Z,12.80
2023-05-11T02:30:58.844Z,12.85
2023-05-11T02:31:58.774Z,12.89
2023-05-11T02:32:58.779Z,12.92
2023-05-11T02:33:58.795Z,12.89
2023-05-11T02:34:58.756Z,12.91
2023-05-11T02:35:58.763Z,12.92
2023-05-11T02:36:58.699Z,12.94
2023-05-11T02:37:58.717Z,12.95
2023-05-11T02:38:58.697Z,12.95
2023-05-11T02:39:58.708Z,12.96
2023-05-11T02:40:58.701Z,12.99
2023-05-11T02:41:58.667Z,12.98
2023-05-11T02:42:58.654Z,12.98
2023-05-11T02:43:58.647Z,12.98
2023-05-11T02:44:58.597Z,12.98
2023-05-11T02:45:58.626Z,12.96
2023-05-11T02:46:58.641Z,12.99
2023-05-11T02:47:58.662Z,12.98
2023-05-11T02:48:58.566Z,13.01
2023-05-11T02:49:58.594Z,12.99
2023-05-11T02:50:58.539Z,12.99
2023-05-11T02:51:58.549Z,12.96
2023-05-11T02:52:58.511Z,12.94
2023-05-11T02:53:58.534Z,12.91
2023-05-11T02:54:58.477Z,12.92
2023-05-11T02:55:58.462Z,12.94
2023-05-11T02:56:58.494Z,12.94
2023-05-11T02:57:58.500Z,12.94
2023-05-11T02:58:58.412Z,12.94
2023-05-11T02:59:58.437Z,12.95
2023-05-11T03:00:58.455Z,12.96
2023-05-11T03:01:58.548Z,12.98
2023-05-11T03:02:58.397Z,12.98
2023-05-11T03:03:58.423Z,12.95
2023-05-11T03:04:58.390Z,12.94
2023-05-11T03:05:58.332Z,12.95
2023-05-11T03:06:58.312Z,12.94
2023-05-11T03:07:58.353Z,12.89
2023-05-11T03:08:58.280Z,12.89
2023-05-11T03:09:58.358Z,12.91
2023-05-11T03:10:58.292Z,12.96
2023-05-11T03:11:58.286Z,12.91
2023-05-11T03:12:58.251Z,12.91
2023-05-11T03:13:58.286Z,12.91
2023-05-11T03:14:58.206Z,12.88
2023-05-11T03:15:58.229Z,12.88
2023-05-11T03:16:58.256Z,12.85
2023-05-11T03:17:58.267Z,12.85
2023-05-11T03:18:58.199Z,12.88
2023-05-11T03:19:58.179Z,12.89
2023-05-11T03:20:58.157Z,12.89
2023-05-11T03:21:58.126Z,12.87
2023-05-11T03:22:58.122Z,12.88
2023-05-11T03:23:58.103Z,12.88
2023-05-11T03:24:58.127Z,12.88
2023-05-11T03:25:58.069Z,12.87
2023-05-11T03:26:58.071Z,12.87
2023-05-11T03:27:58.092Z,12.87
2023-05-11T03:28:58.016Z,12.87
2023-05-11T03:29:58.068Z,12.87
2023-05-11T03:30:58.015Z,12.84
2023-05-11T03:31:58.035Z,12.84
2023-05-11T03:32:58.054Z,12.80
2023-05-11T03:33:58.016Z,12.79
2023-05-11T03:34:57.968Z,12.79
2023-05-11T03:35:58.003Z,12.79
2023-05-11T03:36:57.943Z,12.77
2023-05-11T03:37:57.970Z,12.77
2023-05-11T03:38:57.883Z,12.76
2023-05-11T03:39:57.899Z,12.76
2023-05-11T03:40:57.912Z,12.74
2023-05-11T03:41:57.913Z,12.74
2023-05-11T03:42:57.839Z,12.76
2023-05-11T03:43:57.837Z,12.79
2023-05-11T03:44:57.836Z,12.81
2023-05-11T03:45:57.890Z,12.79
2023-05-11T03:46:57.825Z,12.79
2023-05-11T03:47:57.887Z,12.80
2023-05-11T03:48:57.767Z,12.80
2023-05-11T03:49:57.789Z,12.80
2023-05-11T03:50:57.754Z,12.79
2023-05-11T03:51:57.764Z,12.80
2023-05-11T03:52:57.704Z,12.80
2023-05-11T03:53:57.750Z,12.79
2023-05-11T03:54:57.687Z,12.80
2023-05-11T03:55:57.698Z,12.81
2023-05-11T03:56:57.664Z,12.80
2023-05-11T03:57:57.680Z,12.79
2023-05-11T03:58:57.632Z,12.80
2023-05-11T03:59:57.651Z,12.80
2023-05-11T04:00:57.621Z,12.79
2023-05-11T04:01:57.604Z,12.80
2023-05-11T04:02:57.708Z,12.79
2023-05-11T04:03:57.869Z,12.79
2023-05-11T04:04:57.592Z,12.79
2023-05-11T04:05:57.548Z,12.79
2023-05-11T04:06:57.554Z,12.79
2023-05-11T04:07:57.545Z,12.77
2023-05-11T04:08:57.532Z,12.77
2023-05-11T04:09:57.512Z,12.79
2023-05-11T04:10:57.495Z,12.80
2023-05-11T04:11:57.506Z,12.80
2023-05-11T04:12:57.493Z,12.80
2023-05-11T04:13:57.482Z,12.80
2023-05-11T04:14:57.434Z,12.79
2023-05-11T04:15:57.489Z,12.77
2023-05-11T04:16:57.411Z,12.80
2023-05-11T04:17:57.464Z,12.81
2023-05-11T04:18:57.409Z,12.84
2023-05-11T04:19:57.388Z,12.84
2023-05-11T04:20:57.334Z,12.85
2023-05-11T04:21:57.373Z,12.87
2023-05-11T04:22:57.347Z,12.89
2023-05-11T04:23:57.322Z,12.87
2023-05-11T04:24:57.337Z,12.87
2023-05-11T04:25:57.350Z,12.87
2023-05-11T04:26:57.308Z,12.88
2023-05-11T04:27:57.252Z,12.88
2023-05-11T04:28:57.243Z,12.89
2023-05-11T04:29:57.284Z,12.88
2023-05-11T04:30:57.257Z,12.88
2023-05-11T04:31:57.380Z,12.89
2023-05-11T04:32:57.270Z,12.89
2023-05-11T04:33:57.188Z,12.89
2023-05-11T04:34:57.154Z,12.91
2023-05-11T04:35:57.194Z,12.89
2023-05-11T04:36:57.161Z,12.91
2023-05-11T04:37:57.119Z,12.89
2023-05-11T04:38:57.104Z,12.92
2023-05-11T04:39:57.151Z,12.91
2023-05-11T04:40:57.115Z,12.91
2023-05-11T04:41:57.084Z,12.91
2023-05-11T04:42:57.087Z,12.92
2023-05-11T04:43:57.082Z,12.94
2023-05-11T04:44:57.054Z,12.96
2023-05-11T04:45:57.015Z,12.98
2023-05-11T04:46:57.076Z,12.99
2023-05-11T04:47:57.090Z,13.01
2023-05-11T04:48:56.978Z,13.03
2023-05-11T04:49:56.988Z,13.06
2023-05-11T04:50:56.960Z,13.07
2023-05-11T04:51:56.969Z,13.09
2023-05-11T04:52:56.962Z,13.10
2023-05-11T04:53:56.949Z,13.12
2023-05-11T04:54:56.923Z,13.12
2023-05-11T04:55:56.884Z,13.14
2023-05-11T04:56:56.898Z,13.14
2023-05-11T04:57:56.877Z,13.12
2023-05-11T04:58:56.874Z,13.10
2023-05-11T04:59:57.030Z,13.10
2023-05-11T05:00:56.867Z,13.09
2023-05-11T05:01:56.853Z,13.10
2023-05-11T05:02:56.826Z,13.10
2023-05-11T05:03:56.816Z,13.09
2023-05-11T05:04:56.824Z,13.06
2023-05-11T05:05:56.807Z,13.04
2023-05-11T05:06:56.797Z,13.03
2023-05-11T05:07:56.758Z,13.03
2023-05-11T05:08:56.719Z,13.04
2023-05-11T05:09:56.757Z,13.04
2023-05-11T05:10:56.729Z,13.07
2023-05-11T05:11:56.693Z,13.09
2023-05-11T05:12:56.655Z,13.09
2023-05-11T05:13:56.657Z,13.09
2023-05-11T05:14:56.661Z,13.07
2023-05-11T05:15:56.675Z,13.07
2023-05-11T05:16:56.629Z,13.09
2023-05-11T05:17:56.636Z,13.07
2023-05-11T05:18:56.754Z,13.07
2023-05-11T05:19:56.659Z,13.06
2023-05-11T05:20:56.548Z,13.07
2023-05-11T05:21:56.559Z,13.09
2023-05-11T05:22:56.541Z,13.07
2023-05-11T05:23:56.555Z,13.09
2023-05-11T05:24:56.628Z,13.13
2023-05-11T05:25:56.512Z,13.14
2023-05-11T05:26:56.502Z,13.16
2023-05-11T05:27:56.465Z,13.16
2023-05-11T05:28:56.459Z,13.14
2023-05-11T05:29:56.457Z,13.13
2023-05-11T05:30:56.513Z,13.10
2023-05-11T05:31:56.448Z,13.12
2023-05-11T05:32:56.516Z,13.10
2023-05-11T05:33:56.397Z,13.10
2023-05-11T05:34:56.399Z,13.12
2023-05-11T05:35:56.398Z,13.13
2023-05-11T05:36:56.407Z,13.13
2023-05-11T05:37:56.341Z,13.13
2023-05-11T05:38:56.339Z,13.16
2023-05-11T05:39:56.359Z,13.14
2023-05-11T05:40:56.340Z,13.16
2023-05-11T05:41:56.287Z,13.14
2023-05-11T05:42:56.271Z,13.14
2023-05-11T05:43:56.269Z,13.14
2023-05-11T05:44:56.272Z,13.17
2023-05-11T05:45:56.246Z,13.19
2023-05-11T05:46:56.265Z,13.19
2023-05-11T05:47:56.289Z,13.19
2023-05-11T05:48:56.210Z,13.21
2023-05-11T05:49:56.222Z,13.22
2023-05-11T05:50:56.181Z,13.21
2023-05-11T05:51:56.251Z,13.24
2023-05-11T05:52:56.128Z,13.27
2023-05-11T05:53:56.153Z,13.28
2023-05-11T05:54:56.109Z,13.25
2023-05-11T05:55:56.199Z,13.28
2023-05-11T05:56:56.110Z,13.29
2023-05-11T05:57:56.136Z,13.32
2023-05-11T05:58:56.081Z,13.38
2023-05-11T05:59:56.075Z,13.36
2023-05-11T06:00:56.096Z,13.39
2023-05-11T06:01:56.035Z,13.41
2023-05-11T06:02:56.049Z,13.43
2023-05-11T06:03:56.208Z,13.43
2023-05-11T06:04:56.067Z,13.44
2023-05-11T06:05:56.032Z,13.44
2023-05-11T06:06:56.052Z,13.50
2023-05-11T06:08:09.126Z,13.53
2023-05-11T06:08:57.075Z,13.55
2023-05-11T06:09:55.921Z,13.62
2023-05-11T06:10:55.914Z,13.68
2023-05-11T06:11:55.904Z,13.73
2023-05-11T06:12:55.966Z,13.79
2023-05-11T06:13:55.964Z,13.83
2023-05-11T06:14:56.014Z,13.87
2023-05-11T06:15:55.902Z,13.87
2023-05-11T06:16:55.851Z,13.84
2023-05-11T06:17:56.893Z,13.83
2023-05-11T06:18:55.877Z,13.84
2023-05-11T06:19:55.782Z,13.80
2023-05-11T06:20:55.780Z,13.73
2023-05-11T06:21:55.774Z,13.72
2023-05-11T06:22:55.792Z,13.71
2023-05-11T06:23:55.790Z,13.72
2023-05-11T06:24:55.710Z,13.76
2023-05-11T06:25:55.741Z,13.81
2023-05-11T06:26:55.749Z,13.84
2023-05-11T06:27:55.719Z,13.87
2023-05-11T06:28:55.768Z,13.91
2023-05-11T06:29:55.726Z,13.96
2023-05-11T06:30:55.702Z,14.02
2023-05-11T06:31:55.717Z,14.05
2023-05-11T06:32:55.659Z,14.06
2023-05-11T06:33:55.665Z,14.01
2023-05-11T06:34:55.674Z,13.98
2023-05-11T06:35:55.641Z,13.91
2023-05-11T06:36:55.619Z,13.96
2023-05-11T06:37:55.579Z,13.99
2023-05-11T06:38:55.535Z,14.04
2023-05-11T06:39:55.570Z,14.06
2023-05-11T06:40:55.613Z,14.09
2023-05-11T06:41:57.056Z,14.16
2023-05-11T06:42:55.541Z,14.11
2023-05-11T06:43:55.491Z,14.12
2023-05-11T06:44:55.531Z,14.12
2023-05-11T06:45:55.528Z,14.11
2023-05-11T06:46:55.456Z,14.11
2023-05-11T06:47:55.474Z,14.11
2023-05-11T06:48:55.429Z,14.09
2023-05-11T06:49:55.388Z,14.09
2023-05-11T06:50:55.491Z,14.08
2023-05-11T06:51:55.380Z,14.08
2023-05-11T06:52:55.353Z,14.09
2023-05-11T06:53:55.366Z,14.06
2023-05-11T06:54:55.397Z,14.02
2023-05-11T06:55:55.326Z,14.04
2023-05-11T06:56:55.350Z,14.06
2023-05-11T06:57:55.306Z,14.09
2023-05-11T06:58:55.271Z,14.09
2023-05-11T06:59:55.284Z,14.12
2023-05-11T07:00:55.312Z,14.13
2023-05-11T07:01:55.254Z,14.11
2023-05-11T07:02:55.315Z,14.02
2023-05-11T07:03:55.227Z,14.02
2023-05-11T07:04:55.297Z,13.98
2023-05-11T07:05:55.239Z,13.99
2023-05-11T07:06:55.177Z,14.01
2023-05-11T07:07:55.175Z,14.01
2023-05-11T07:08:55.169Z,13.99
2023-05-11T07:09:55.142Z,14.04
2023-05-11T07:10:55.153Z,14.08
2023-05-11T07:11:55.137Z,14.08
2023-05-11T07:12:55.126Z,14.06
2023-05-11T07:13:55.096Z,14.08
2023-05-11T07:14:55.066Z,14.08
2023-05-11T07:15:57.367Z,14.09
2023-05-11T07:16:55.102Z,14.11
2023-05-11T07:17:55.163Z,14.13
2023-05-11T07:18:55.075Z,14.19
2023-05-11T07:19:55.025Z,14.19
2023-05-11T07:20:55.029Z,14.19
2023-05-11T07:21:54.959Z,14.19
2023-05-11T07:22:54.962Z,14.17
2023-05-11T07:23:54.963Z,14.20
2023-05-11T07:24:54.994Z,14.23
2023-05-11T07:25:54.929Z,14.26
2023-05-11T07:26:54.947Z,14.26
2023-05-11T07:27:54.919Z,14.26
2023-05-11T07:28:54.929Z,14.29
2023-05-11T07:29:54.885Z,14.29
2023-05-11T07:30:54.879Z,14.31
2023-05-11T07:31:54.924Z,14.31
2023-05-11T07:32:54.872Z,14.35
2023-05-11T07:33:54.826Z,14.35
2023-05-11T07:34:54.853Z,14.38
2023-05-11T07:35:54.844Z,14.36
2023-05-11T07:36:54.782Z,14.36
2023-05-11T07:37:54.763Z,14.38
2023-05-11T07:38:54.792Z,14.36
2023-05-11T07:39:54.752Z,14.38
2023-05-11T07:40:54.803Z,14.35
2023-05-11T07:41:54.750Z,14.38
2023-05-11T07:42:54.704Z,14.41
2023-05-11T07:43:54.714Z,14.44
2023-05-11T07:44:54.671Z,14.46
2023-05-11T07:45:54.837Z,14.42
2023-05-11T07:46:54.654Z,14.39
2023-05-11T07:47:54.702Z,14.35
2023-05-11T07:49:03.506Z,14.36
2023-05-11T07:49:55.608Z,14.42
2023-05-11T07:50:54.623Z,14.53
2023-05-11T07:51:54.632Z,14.60
2023-05-11T07:52:54.611Z,14.63
2023-05-11T07:53:54.584Z,14.61
2023-05-11T07:54:54.574Z,14.59
2023-05-11T07:55:54.679Z,14.56
2023-05-11T07:56:54.519Z,14.56
2023-05-11T07:57:54.527Z,14.67
2023-05-11T07:58:54.490Z,14.75
2023-05-11T07:59:54.517Z,14.82
2023-05-11T08:00:54.470Z,14.91
2023-05-11T08:01:54.520Z,14.98
2023-05-11T08:02:54.687Z,14.98
2023-05-11T08:03:54.415Z,15.04
2023-05-11T08:04:54.430Z,15.13
2023-05-11T08:05:54.501Z,15.25
2023-05-11T08:06:54.455Z,15.33
2023-05-11T08:07:54.369Z,15.37
2023-05-11T08:08:54.417Z,15.37
2023-05-11T08:09:54.369Z,15.35
2023-05-11T08:10:54.377Z,15.38
2023-05-11T08:11:54.346Z,15.30
2023-05-11T08:12:54.345Z,15.27
2023-05-11T08:13:54.295Z,15.23
2023-05-11T08:14:54.332Z,15.22
2023-05-11T08:15:54.349Z,15.11
2023-05-11T08:16:54.258Z,15.04
2023-05-11T08:17:54.366Z,15.05
2023-05-11T08:18:54.286Z,15.09
2023-05-11T08:19:54.253Z,15.09
2023-05-11T08:20:54.226Z,15.09
2023-05-11T08:21:54.188Z,15.03
2023-05-11T08:22:54.214Z,14.95
2023-05-11T08:23:54.183Z,14.91
2023-05-11T08:24:54.176Z,14.91
2023-05-11T08:25:54.240Z,14.95
2023-05-11T08:26:54.130Z,14.98
2023-05-11T08:27:54.138Z,15.00
2023-05-11T08:28:54.110Z,15.03
2023-05-11T08:29:54.076Z,15.05
2023-05-11T08:30:54.088Z,15.00
2023-05-11T08:31:54.114Z,14.97
2023-05-11T08:32:58.460Z,15.00
2023-05-11T08:33:55.145Z,15.04
2023-05-11T08:34:54.148Z,15.09
2023-05-11T08:35:54.013Z,15.13
2023-05-11T08:36:54.024Z,15.15
2023-05-11T08:37:54.074Z,15.12
2023-05-11T08:38:57.273Z,15.13
2023-05-11T08:39:55.005Z,15.15
2023-05-11T08:40:53.979Z,15.20
2023-05-11T08:41:53.933Z,15.22
2023-05-11T08:42:53.950Z,15.30
2023-05-11T08:43:53.892Z,15.27
2023-05-11T08:44:53.977Z,15.25
2023-05-11T08:45:53.946Z,15.27
2023-05-11T08:47:08.556Z,15.30
2023-05-11T08:47:54.991Z,15.22
2023-05-11T08:48:53.978Z,15.07
2023-05-11T08:49:53.890Z,15.05
2023-05-11T08:50:53.872Z,15.11
2023-05-11T08:51:53.990Z,15.07
2023-05-11T08:52:57.832Z,15.07
2023-05-11T08:53:53.788Z,15.11
2023-05-11T08:54:53.786Z,15.16
2023-05-11T08:55:53.880Z,15.16
2023-05-11T08:56:53.735Z,15.16
2023-05-11T08:57:53.726Z,15.16
2023-05-11T08:58:55.945Z,15.19
2023-05-11T08:59:53.715Z,15.22
2023-05-11T09:00:53.741Z,15.28
2023-05-11T09:01:53.695Z,15.34
2023-05-11T09:02:53.708Z,15.41
2023-05-11T09:03:53.788Z,15.49
2023-05-11T09:04:54.579Z,15.49
2023-05-11T09:05:53.809Z,15.55
2023-05-11T09:06:53.622Z,15.53
2023-05-11T09:07:53.578Z,15.53
2023-05-11T09:08:53.588Z,15.55
2023-05-11T09:09:53.595Z,15.49
2023-05-11T09:10:53.557Z,15.53
2023-05-11T09:11:53.726Z,15.59
2023-05-11T09:12:53.569Z,15.66
2023-05-11T09:13:53.528Z,15.71
2023-05-11T09:14:53.530Z,15.70
2023-05-11T09:15:53.614Z,15.73
2023-05-11T09:16:53.526Z,15.67
2023-05-11T09:17:53.535Z,15.70
2023-05-11T09:18:53.537Z,15.71
2023-05-11T09:19:53.520Z,15.71
2023-05-11T09:20:53.437Z,15.66
2023-05-11T09:21:53.431Z,15.59
2023-05-11T09:22:53.394Z,15.66
2023-05-11T09:23:53.491Z,15.71
2023-05-11T09:24:53.405Z,15.70
2023-05-11T09:25:53.386Z,15.70
2023-05-11T09:26:53.368Z,15.67
2023-05-11T09:27:53.322Z,15.66
2023-05-11T09:29:02.539Z,15.70
2023-05-11T09:29:54.360Z,15.78
2023-05-11T09:30:53.346Z,15.78
2023-05-11T09:31:53.365Z,15.78
2023-05-11T09:32:53.390Z,15.81
2023-05-11T09:33:53.237Z,15.80
2023-05-11T09:34:53.270Z,15.78
2023-05-11T09:35:53.289Z,15.80
2023-05-11T09:36:53.259Z,15.81
2023-05-11T09:37:53.204Z,15.88
2023-05-11T09:38:57.349Z,15.92
2023-05-11T09:40:25.021Z,15.88
2023-05-11T09:40:54.224Z,15.77
2023-05-11T09:41:53.154Z,15.71
2023-05-11T09:42:53.160Z,15.71
2023-05-11T09:43:53.121Z,15.66
2023-05-11T09:44:53.137Z,15.68
2023-05-11T09:45:53.119Z,15.66
2023-05-11T09:46:53.151Z,15.59
2023-05-11T09:47:53.135Z,15.55
2023-05-11T09:48:53.051Z,15.60
2023-05-11T09:49:53.066Z,15.60
2023-05-11T09:50:53.021Z,15.66
2023-05-11T09:51:53.046Z,15.60
2023-05-11T09:52:53.072Z,15.64
2023-05-11T09:53:53.003Z,15.67
2023-05-11T09:54:53.012Z,15.71
2023-05-11T09:55:52.976Z,15.78
2023-05-11T09:56:52.979Z,15.85
2023-05-11T09:57:52.919Z,15.89
2023-05-11T09:58:52.934Z,15.98
2023-05-11T09:59:52.925Z,16.01
2023-05-11T10:00:52.944Z,15.95
2023-05-11T10:01:52.993Z,15.96
2023-05-11T10:02:52.991Z,15.95
2023-05-11T10:03:55.004Z,15.95
2023-05-11T10:04:53.880Z,15.95
2023-05-11T10:05:52.812Z,15.98
2023-05-11T10:06:52.978Z,15.96
2023-05-11T10:07:52.855Z,16.01
2023-05-11T10:08:52.783Z,16.01
2023-05-11T10:09:52.779Z,16.07
2023-05-11T10:10:52.774Z,16.11
2023-05-11T10:11:52.736Z,16.13
2023-05-11T10:12:52.742Z,16.10
2023-05-11T10:13:52.717Z,16.03
2023-05-11T10:14:52.740Z,16.03
2023-05-11T10:15:52.725Z,16.04
2023-05-11T10:16:52.713Z,16.07
2023-05-11T10:17:52.731Z,16.11
2023-05-11T10:18:52.729Z,16.08
2023-05-11T10:19:52.692Z,16.04
2023-05-11T10:20:52.638Z,16.01
2023-05-11T10:21:52.680Z,16.07
2023-05-11T10:22:52.658Z,16.11
2023-05-11T10:23:52.608Z,16.10
2023-05-11T10:24:52.582Z,16.06
2023-05-11T10:25:52.576Z,16.03
2023-05-11T10:26:52.592Z,16.01
2023-05-11T10:27:52.565Z,16.06
2023-05-11T10:28:52.525Z,15.99
2023-05-11T10:29:52.504Z,16.03
2023-05-11T10:30:52.531Z,16.06
2023-05-11T10:31:52.561Z,16.06
2023-05-11T10:32:52.547Z,16.04
2023-05-11T10:33:52.506Z,16.07
2023-05-11T10:34:52.465Z,16.14
2023-05-11T10:35:54.206Z,16.14
2023-05-11T10:36:52.453Z,16.16
2023-05-11T10:37:52.395Z,16.14
2023-05-11T10:38:52.402Z,16.17
2023-05-11T10:39:52.398Z,16.22
2023-05-11T10:40:52.391Z,16.16
2023-05-11T10:41:52.358Z,16.23
2023-05-11T10:42:52.380Z,16.23
2023-05-11T10:43:52.326Z,16.27
2023-05-11T10:44:52.364Z,16.29
2023-05-11T10:45:52.355Z,16.26
2023-05-11T10:46:52.332Z,16.27
2023-05-11T10:47:52.346Z,16.36
2023-05-11T10:48:52.275Z,16.47
2023-05-11T10:49:52.259Z,16.50
2023-05-11T10:50:52.224Z,16.52
2023-05-11T10:51:52.243Z,16.52
2023-05-11T10:52:52.195Z,16.52
2023-05-11T10:53:52.209Z,16.50
2023-05-11T10:54:52.167Z,16.52
2023-05-11T10:55:52.190Z,16.50
2023-05-11T10:56:52.189Z,16.54
2023-05-11T10:57:52.173Z,16.57
2023-05-11T10:58:52.172Z,16.55
2023-05-11T10:59:52.167Z,16.57
2023-05-11T11:00:52.200Z,16.59
2023-05-11T11:01:52.248Z,16.60
2023-05-11T11:02:52.096Z,16.63
2023-05-11T11:03:52.086Z,16.66
2023-05-11T11:04:52.080Z,16.73
2023-05-11T11:05:52.044Z,16.73
2023-05-11T11:06:52.013Z,16.59
2023-05-11T11:07:52.077Z,16.63
2023-05-11T11:08:52.015Z,16.66
2023-05-11T11:09:52.020Z,16.69
2023-05-11T11:10:51.964Z,16.69
2023-05-11T11:11:52.001Z,16.59
2023-05-11T11:12:51.936Z,16.52
2023-05-11T11:13:51.953Z,16.55
2023-05-11T11:14:51.931Z,16.62
2023-05-11T11:15:51.976Z,16.63
2023-05-11T11:16:51.986Z,16.69
2023-05-11T11:17:51.898Z,16.73
2023-05-11T11:18:51.895Z,16.77
2023-05-11T11:19:51.860Z,16.75
2023-05-11T11:20:51.895Z,16.73
2023-05-11T11:21:51.848Z,16.70
2023-05-11T11:22:51.821Z,16.66
2023-05-11T11:23:51.849Z,16.70
2023-05-11T11:24:51.764Z,16.72
2023-05-11T11:25:51.808Z,16.67
2023-05-11T11:26:51.818Z,16.69
2023-05-11T11:27:51.777Z,16.67
2023-05-11T11:28:51.744Z,16.66
2023-05-11T11:29:51.775Z,16.72
2023-05-11T11:30:51.786Z,16.77
2023-05-11T11:31:51.701Z,16.80
2023-05-11T11:32:51.724Z,16.78
2023-05-11T11:33:51.676Z,16.84
2023-05-11T11:34:51.679Z,16.81
2023-05-11T11:35:51.664Z,16.73
2023-05-11T11:36:51.716Z,16.69
2023-05-11T11:37:51.627Z,16.72
2023-05-11T11:38:51.616Z,16.73
2023-05-11T11:39:51.617Z,16.72
2023-05-11T11:40:52.492Z,16.73
2023-05-11T11:41:51.600Z,16.82
2023-05-11T11:42:51.550Z,16.88
2023-05-11T11:43:51.568Z,16.98
2023-05-11T11:44:51.525Z,17.06
2023-05-11T11:45:51.585Z,17.09
2023-05-11T11:46:51.590Z,17.07
2023-05-11T11:47:51.531Z,17.07
2023-05-11T11:48:54.346Z,17.07
2023-05-11T11:49:51.463Z,17.12
2023-05-11T11:50:51.456Z,17.15
2023-05-11T11:51:51.482Z,17.12
2023-05-11T11:52:51.428Z,17.12
2023-05-11T11:53:51.439Z,17.12
2023-05-11T11:54:51.459Z,17.20
2023-05-11T11:55:51.384Z,17.17
2023-05-11T11:56:51.372Z,17.18
2023-05-11T11:57:51.474Z,17.12
2023-05-11T11:58:51.358Z,17.05
2023-05-11T11:59:51.386Z,17.00
2023-05-11T12:00:51.308Z,17.07
2023-05-11T12:01:51.325Z,17.10
2023-05-11T12:02:51.346Z,17.12
2023-05-11T12:03:51.424Z,17.12
2023-05-11T12:04:51.351Z,17.10
2023-05-11T12:05:51.251Z,17.10
2023-05-11T12:06:51.213Z,17.15
2023-05-11T12:07:51.314Z,17.22
2023-05-11T12:08:51.232Z,17.35
2023-05-11T12:09:51.236Z,17.43
2023-05-11T12:10:51.185Z,17.43
2023-05-11T12:11:51.177Z,17.33
2023-05-11T12:12:51.156Z,17.38
2023-05-11T12:13:51.200Z,17.40
2023-05-11T12:14:51.147Z,17.46
2023-05-11T12:15:51.133Z,17.54
2023-05-11T12:16:51.200Z,17.65
2023-05-11T12:17:51.220Z,17.65
2023-05-11T12:18:51.086Z,17.65
2023-05-11T12:19:51.105Z,17.68
2023-05-11T12:20:51.051Z,17.74
2023-05-11T12:21:51.076Z,17.68
2023-05-11T12:22:51.045Z,17.60
2023-05-11T12:23:51.021Z,17.58
2023-05-11T12:24:50.990Z,17.65
2023-05-11T12:25:51.033Z,17.63
2023-05-11T12:26:50.985Z,17.70
2023-05-11T12:27:50.989Z,17.71
2023-05-11T12:28:50.953Z,17.74
2023-05-11T12:29:50.954Z,17.77
2023-05-11T12:30:50.935Z,17.65
2023-05-11T12:31:51.021Z,17.49
2023-05-11T12:32:56.521Z,17.47
2023-05-11T12:33:51.902Z,17.45
2023-05-11T12:34:50.854Z,17.46
2023-05-11T12:35:50.864Z,17.54
2023-05-11T12:36:50.855Z,17.55
2023-05-11T12:37:50.879Z,17.55
2023-05-11T12:38:50.804Z,17.60
2023-05-11T12:39:50.818Z,17.63
2023-05-11T12:40:50.821Z,17.70
2023-05-11T12:41:50.804Z,17.62
2023-05-11T12:42:50.769Z,17.55
2023-05-11T12:43:50.886Z,17.57
2023-05-11T12:44:50.758Z,17.58
2023-05-11T12:45:50.764Z,17.62
2023-05-11T12:46:50.761Z,17.62
2023-05-11T12:47:50.779Z,17.57
2023-05-11T12:48:50.700Z,17.51
2023-05-11T12:49:50.699Z,17.54
2023-05-11T12:50:50.684Z,17.58
2023-05-11T12:51:50.649Z,17.62